sensor_id;sensor_type;location;lat;lon;timestamp;pressure;altitude;pressure_sealevel;temperature;humidity
16120;BME280;12670;53.502;10.252;2023-05-24T00:01:00;101593.13;;;12.09;80.93
16120;BME280;12670;53.502;10.252;2023-05-24T00:04:03;101584.97;;;12.13;80.41
16120;BME280;12670;53.502;10.252;2023-05-24T00:07:07;101601.19;;;12.06;80.20
16120;BME280;12670;53.502;10.252;2023-05-24T00:10:10;101584.78;;;11.93;81.82
16120;BME280;12670;53.502;10.252;2023-05-24T00:13:13;101585.72;;;11.64;81.16
16120;BME280;12670;53.502;10.252;2023-05-24T00:16:16;101587.41;;;11.66;81.38
16120;BME280;12670;53.502;10.252;2023-05-24T00:19:19;101585.09;;;11.84;81.94
16120;BME280;12670;53.502;10.252;2023-05-24T00:22:24;101587.75;;;11.84;83.54
16120;BME280;12670;53.502;10.252;2023-05-24T00:25:27;101581.81;;;11.75;83.17
16120;BME280;12670;53.502;10.252;2023-05-24T00:28:30;101572.69;;;11.56;83.00
16120;BME280;12670;53.502;10.252;2023-05-24T00:31:33;101586.09;;;11.81;82.71
16120;BME280;12670;53.502;10.252;2023-05-24T00:34:36;101571.22;;;12.00;83.49
16120;BME280;12670;53.502;10.252;2023-05-24T00:37:40;101568.13;;;11.88;84.69
16120;BME280;12670;53.502;10.252;2023-05-24T00:40:45;101574.81;;;11.99;84.09
16120;BME280;12670;53.502;10.252;2023-05-24T00:43:49;101565.91;;;12.00;84.15
16120;BME280;12670;53.502;10.252;2023-05-24T00:46:52;101559.13;;;11.92;83.77
16120;BME280;12670;53.502;10.252;2023-05-24T00:49:54;101558.66;;;12.06;83.75
16120;BME280;12670;53.502;10.252;2023-05-24T00:53:01;101553.81;;;11.92;84.46
16120;BME280;12670;53.502;10.252;2023-05-24T00:56:04;101563.03;;;12.07;83.80
16120;BME280;12670;53.502;10.252;2023-05-24T00:59:08;101560.13;;;12.14;84.82
16120;BME280;12670;53.502;10.252;2023-05-24T01:02:11;101555.34;;;11.99;83.13
16120;BME280;12670;53.502;10.252;2023-05-24T01:05:14;101562.50;;;12.22;84.29
16120;BME280;12670;53.502;10.252;2023-05-24T01:08:26;101565.09;;;11.98;82.28
16120;BME280;12670;53.502;10.252;2023-05-24T01:11:48;101560.81;;;11.94;84.08
16120;BME280;12670;53.502;10.252;2023-05-24T01:15:02;101558.56;;;11.82;84.02
16120;BME280;12670;53.502;10.252;2023-05-24T01:18:10;101561.44;;;12.03;84.71
16120;BME280;12670;53.502;10.252;2023-05-24T01:21:29;101555.50;;;11.66;85.10
16120;BME280;12670;53.502;10.252;2023-05-24T01:24:46;101550.56;;;12.09;84.88
16120;BME280;12670;53.502;10.252;2023-05-24T01:27:57;101553.94;;;12.14;84.51
16120;BME280;12670;53.502;10.252;2023-05-24T01:31:01;101548.91;;;11.78;85.81
16120;BME280;12670;53.502;10.252;2023-05-24T01:34:05;101552.19;;;12.13;86.20
16120;BME280;12670;53.502;10.252;2023-05-24T01:37:07;101553.38;;;12.29;87.03
16120;BME280;12670;53.502;10.252;2023-05-24T01:40:11;101554.41;;;12.25;84.94
16120;BME280;12670;53.502;10.252;2023-05-24T01:43:22;101558.00;;;12.24;84.43
16120;BME280;12670;53.502;10.252;2023-05-24T01:46:33;101545.56;;;11.99;85.66
16120;BME280;12670;53.502;10.252;2023-05-24T01:49:41;101549.72;;;12.08;85.58
16120;BME280;12670;53.502;10.252;2023-05-24T01:52:45;101556.84;;;12.06;86.19
16120;BME280;12670;53.502;10.252;2023-05-24T01:55:52;101548.03;;;11.79;86.23
16120;BME280;12670;53.502;10.252;2023-05-24T01:58:58;101540.06;;;11.78;87.29
16120;BME280;12670;53.502;10.252;2023-05-24T02:02:01;101540.38;;;11.96;87.42
16120;BME280;12670;53.502;10.252;2023-05-24T02:05:04;101534.56;;;11.84;88.99
16120;BME280;12670;53.502;10.252;2023-05-24T02:08:07;101537.59;;;11.73;89.24
16120;BME280;12670;53.502;10.252;2023-05-24T02:11:10;101541.69;;;11.83;88.12
16120;BME280;12670;53.502;10.252;2023-05-24T02:14:14;101539.13;;;11.80;88.36
16120;BME280;12670;53.502;10.252;2023-05-24T02:17:17;101546.19;;;11.81;88.68
16120;BME280;12670;53.502;10.252;2023-05-24T02:20:20;101545.94;;;11.89;89.68
16120;BME280;12670;53.502;10.252;2023-05-24T02:23:24;101551.09;;;12.18;89.39
16120;BME280;12670;53.502;10.252;2023-05-24T02:26:26;101547.06;;;12.07;88.17
16120;BME280;12670;53.502;10.252;2023-05-24T02:29:31;101549.38;;;11.92;89.09
16120;BME280;12670;53.502;10.252;2023-05-24T02:32:33;101545.78;;;11.93;87.67
16120;BME280;12670;53.502;10.252;2023-05-24T02:35:36;101548.22;;;11.99;88.37
16120;BME280;12670;53.502;10.252;2023-05-24T02:38:41;101546.06;;;12.11;88.02
16120;BME280;12670;53.502;10.252;2023-05-24T02:41:44;101554.03;;;12.11;88.52
16120;BME280;12670;53.502;10.252;2023-05-24T02:44:48;101547.25;;;12.27;88.94
16120;BME280;12670;53.502;10.252;2023-05-24T02:47:53;101545.56;;;11.99;89.09
16120;BME280;12670;53.502;10.252;2023-05-24T02:50:55;101543.59;;;12.30;89.21
16120;BME280;12670;53.502;10.252;2023-05-24T02:53:58;101542.19;;;12.19;89.13
16120;BME280;12670;53.502;10.252;2023-05-24T02:57:01;101546.09;;;12.34;88.79
16120;BME280;12670;53.502;10.252;2023-05-24T03:00:06;101541.78;;;12.32;88.89
16120;BME280;12670;53.502;10.252;2023-05-24T03:03:11;101538.75;;;12.41;88.49
16120;BME280;12670;53.502;10.252;2023-05-24T03:06:14;101537.09;;;12.38;88.91
16120;BME280;12670;53.502;10.252;2023-05-24T03:09:16;101539.06;;;12.33;88.22
16120;BME280;12670;53.502;10.252;2023-05-24T03:12:19;101535.38;;;12.37;89.56
16120;BME280;12670;53.502;10.252;2023-05-24T03:15:23;101534.13;;;12.46;89.20
16120;BME280;12670;53.502;10.252;2023-05-24T03:18:26;101532.25;;;12.49;89.46
16120;BME280;12670;53.502;10.252;2023-05-24T03:21:28;101532.38;;;12.21;89.69
16120;BME280;12670;53.502;10.252;2023-05-24T03:24:32;101531.66;;;12.41;90.21
16120;BME280;12670;53.502;10.252;2023-05-24T03:27:35;101532.31;;;11.98;90.61
16120;BME280;12670;53.502;10.252;2023-05-24T03:30:39;101534.47;;;12.37;91.90
16120;BME280;12670;53.502;10.252;2023-05-24T03:33:42;101530.25;;;12.06;91.51
16120;BME280;12670;53.502;10.252;2023-05-24T03:36:44;101528.84;;;12.21;91.83
16120;BME280;12670;53.502;10.252;2023-05-24T03:39:47;101534.13;;;11.97;93.33
16120;BME280;12670;53.502;10.252;2023-05-24T03:42:50;101532.09;;;12.29;93.88
16120;BME280;12670;53.502;10.252;2023-05-24T03:45:54;101531.00;;;12.35;93.21
16120;BME280;12670;53.502;10.252;2023-05-24T03:48:57;101526.72;;;12.31;93.13
16120;BME280;12670;53.502;10.252;2023-05-24T03:51:59;101527.56;;;12.31;92.55
16120;BME280;12670;53.502;10.252;2023-05-24T03:55:02;101530.13;;;12.34;94.29
16120;BME280;12670;53.502;10.252;2023-05-24T03:58:05;101535.47;;;12.34;94.72
16120;BME280;12670;53.502;10.252;2023-05-24T04:01:09;101540.16;;;12.03;95.91
16120;BME280;12670;53.502;10.252;2023-05-24T04:04:25;101545.41;;;12.29;95.11
16120;BME280;12670;53.502;10.252;2023-05-24T04:07:28;101553.88;;;11.90;96.10
16120;BME280;12670;53.502;10.252;2023-05-24T04:10:34;101549.59;;;12.11;97.54
16120;BME280;12670;53.502;10.252;2023-05-24T04:13:36;101551.00;;;12.21;96.45
16120;BME280;12670;53.502;10.252;2023-05-24T04:16:40;101551.44;;;12.34;96.85
16120;BME280;12670;53.502;10.252;2023-05-24T04:19:45;101555.53;;;12.43;96.03
16120;BME280;12670;53.502;10.252;2023-05-24T04:22:48;101552.72;;;12.47;96.10
16120;BME280;12670;53.502;10.252;2023-05-24T04:25:51;101556.69;;;12.36;95.99
16120;BME280;12670;53.502;10.252;2023-05-24T04:28:53;101556.53;;;12.40;96.03
16120;BME280;12670;53.502;10.252;2023-05-24T04:31:58;101560.66;;;12.49;97.04
16120;BME280;12670;53.502;10.252;2023-05-24T04:35:02;101561.91;;;12.39;97.98
16120;BME280;12670;53.502;10.252;2023-05-24T04:38:04;101570.63;;;12.42;96.72
16120;BME280;12670;53.502;10.252;2023-05-24T04:41:09;101569.34;;;12.29;97.84
16120;BME280;12670;53.502;10.252;2023-05-24T04:44:11;101573.38;;;12.16;98.75
16120;BME280;12670;53.502;10.252;2023-05-24T04:47:15;101571.56;;;12.41;99.73
16120;BME280;12670;53.502;10.252;2023-05-24T04:50:18;101581.72;;;12.55;98.74
16120;BME280;12670;53.502;10.252;2023-05-24T04:53:22;101587.78;;;12.59;98.87
16120;BME280;12670;53.502;10.252;2023-05-24T04:56:25;101585.75;;;12.65;99.78
16120;BME280;12670;53.502;10.252;2023-05-24T04:59:27;101591.63;;;12.75;98.57
16120;BME280;12670;53.502;10.252;2023-05-24T05:02:31;101596.78;;;12.79;100.00
16120;BME280;12670;53.502;10.252;2023-05-24T05:05:35;101595.84;;;12.80;99.99
16120;BME280;12670;53.502;10.252;2023-05-24T05:08:38;101595.78;;;12.82;100.00
16120;BME280;12670;53.502;10.252;2023-05-24T05:11:40;101595.72;;;12.84;100.00
16120;BME280;12670;53.502;10.252;2023-05-24T05:14:43;101594.16;;;12.78;100.00
16120;BME280;12670;53.502;10.252;2023-05-24T05:17:47;101600.41;;;12.77;100.00
16120;BME280;12670;53.502;10.252;2023-05-24T05:20:50;101601.34;;;12.76;100.00
16120;BME280;12670;53.502;10.252;2023-05-24T05:23:53;101597.88;;;12.74;100.00
16120;BME280;12670;53.502;10.252;2023-05-24T05:26:56;101601.25;;;12.79;100.00
16120;BME280;12670;53.502;10.252;2023-05-24T05:29:58;101610.13;;;12.78;100.00
16120;BME280;12670;53.502;10.252;2023-05-24T05:33:02;101604.91;;;12.51;100.00
16120;BME280;12670;53.502;10.252;2023-05-24T05:36:06;101607.03;;;12.67;100.00
16120;BME280;12670;53.502;10.252;2023-05-24T05:39:09;101608.53;;;12.74;100.00
16120;BME280;12670;53.502;10.252;2023-05-24T05:42:12;101603.09;;;12.77;100.00
16120;BME280;12670;53.502;10.252;2023-05-24T05:45:15;101613.84;;;12.74;100.00
16120;BME280;12670;53.502;10.252;2023-05-24T05:48:19;101614.72;;;12.74;100.00
16120;BME280;12670;53.502;10.252;2023-05-24T05:51:22;101608.47;;;12.75;100.00
16120;BME280;12670;53.502;10.252;2023-05-24T05:54:24;101611.91;;;12.79;100.00
16120;BME280;12670;53.502;10.252;2023-05-24T05:57:28;101615.69;;;12.72;100.00
16120;BME280;12670;53.502;10.252;2023-05-24T06:00:31;101620.91;;;12.75;100.00
16120;BME280;12670;53.502;10.252;2023-05-24T06:03:35;101624.28;;;12.80;100.00
16120;BME280;12670;53.502;10.252;2023-05-24T06:06:41;101632.97;;;12.85;100.00
16120;BME280;12670;53.502;10.252;2023-05-24T06:09:45;101635.25;;;12.71;100.00
16120;BME280;12670;53.502;10.252;2023-05-24T06:12:48;101637.88;;;12.72;100.00
16120;BME280;12670;53.502;10.252;2023-05-24T06:15:50;101642.94;;;12.80;100.00
16120;BME280;12670;53.502;10.252;2023-05-24T06:18:55;101642.09;;;12.78;100.00
16120;BME280;12670;53.502;10.252;2023-05-24T06:22:06;101643.72;;;12.82;100.00
16120;BME280;12670;53.502;10.252;2023-05-24T06:25:09;101643.63;;;12.85;100.00
16120;BME280;12670;53.502;10.252;2023-05-24T06:28:15;101644.50;;;12.86;100.00
16120;BME280;12670;53.502;10.252;2023-05-24T06:31:18;101650.47;;;12.92;100.00
16120;BME280;12670;53.502;10.252;2023-05-24T06:34:22;101648.72;;;12.91;100.00
16120;BME280;12670;53.502;10.252;2023-05-24T06:37:25;101653.19;;;12.91;100.00
16120;BME280;12670;53.502;10.252;2023-05-24T06:40:31;101665.56;;;12.92;100.00
16120;BME280;12670;53.502;10.252;2023-05-24T06:43:34;101668.19;;;12.93;100.00
16120;BME280;12670;53.502;10.252;2023-05-24T06:46:37;101671.63;;;12.95;100.00
16120;BME280;12670;53.502;10.252;2023-05-24T06:49:42;101672.47;;;12.97;100.00
16120;BME280;12670;53.502;10.252;2023-05-24T06:52:44;101682.06;;;13.01;100.00
16120;BME280;12670;53.502;10.252;2023-05-24T06:55:47;101684.72;;;13.01;100.00
16120;BME280;12670;53.502;10.252;2023-05-24T06:58:50;101680.94;;;13.08;100.00
16120;BME280;12670;53.502;10.252;2023-05-24T07:01:52;101681.63;;;12.90;100.00
16120;BME280;12670;53.502;10.252;2023-05-24T07:05:01;101686.47;;;12.79;100.00
16120;BME280;12670;53.502;10.252;2023-05-24T07:08:04;101691.00;;;13.00;100.00
16120;BME280;12670;53.502;10.252;2023-05-24T07:11:07;101689.38;;;12.96;100.00
16120;BME280;12670;53.502;10.252;2023-05-24T07:14:10;101695.50;;;12.98;100.00
16120;BME280;12670;53.502;10.252;2023-05-24T07:17:13;101696.69;;;13.15;100.00
16120;BME280;12670;53.502;10.252;2023-05-24T07:20:17;101693.69;;;13.24;100.00
16120;BME280;12670;53.502;10.252;2023-05-24T07:23:20;101692.25;;;13.39;100.00
16120;BME280;12670;53.502;10.252;2023-05-24T07:26:23;101700.97;;;13.44;100.00
16120;BME280;12670;53.502;10.252;2023-05-24T07:29:25;101699.13;;;13.68;100.00
16120;BME280;12670;53.502;10.252;2023-05-24T07:32:28;101692.78;;;13.70;100.00
16120;BME280;12670;53.502;10.252;2023-05-24T07:35:34;101692.38;;;14.03;99.94
16120;BME280;12670;53.502;10.252;2023-05-24T07:38:38;101693.66;;;14.36;98.97
16120;BME280;12670;53.502;10.252;2023-05-24T07:41:41;101694.75;;;14.53;96.39
16120;BME280;12670;53.502;10.252;2023-05-24T07:44:44;101699.47;;;14.87;96.67
16120;BME280;12670;53.502;10.252;2023-05-24T07:47:47;101692.50;;;14.84;91.49
16120;BME280;12670;53.502;10.252;2023-05-24T07:50:51;101693.50;;;15.01;92.37
16120;BME280;12670;53.502;10.252;2023-05-24T07:53:55;101698.94;;;14.99;92.12
16120;BME280;12670;53.502;10.252;2023-05-24T07:56:58;101701.44;;;14.83;90.12
16120;BME280;12670;53.502;10.252;2023-05-24T08:00:02;101704.50;;;14.74;91.43
16120;BME280;12670;53.502;10.252;2023-05-24T08:03:11;101709.91;;;14.52;92.50
16120;BME280;12670;53.502;10.252;2023-05-24T08:06:16;101702.72;;;14.10;91.42
16120;BME280;12670;53.502;10.252;2023-05-24T08:09:19;101714.00;;;14.17;93.22
16120;BME280;12670;53.502;10.252;2023-05-24T08:12:22;101716.22;;;14.07;92.75
16120;BME280;12670;53.502;10.252;2023-05-24T08:15:26;101718.53;;;13.71;93.96
16120;BME280;12670;53.502;10.252;2023-05-24T08:18:29;101720.88;;;14.02;95.49
16120;BME280;12670;53.502;10.252;2023-05-24T08:21:33;101723.09;;;13.91;93.87
16120;BME280;12670;53.502;10.252;2023-05-24T08:24:35;101722.09;;;14.16;94.45
16120;BME280;12670;53.502;10.252;2023-05-24T08:27:38;101722.28;;;14.11;93.99
16120;BME280;12670;53.502;10.252;2023-05-24T08:30:41;101728.66;;;14.29;94.95
16120;BME280;12670;53.502;10.252;2023-05-24T08:33:43;101724.22;;;14.07;94.00
16120;BME280;12670;53.502;10.252;2023-05-24T08:36:51;101731.75;;;14.18;94.16
16120;BME280;12670;53.502;10.252;2023-05-24T08:39:55;101740.16;;;14.09;95.05
16120;BME280;12670;53.502;10.252;2023-05-24T08:42:59;101741.81;;;14.11;94.77
16120;BME280;12670;53.502;10.252;2023-05-24T08:46:03;101744.81;;;14.26;95.57
16120;BME280;12670;53.502;10.252;2023-05-24T08:49:06;101744.75;;;14.27;93.84
16120;BME280;12670;53.502;10.252;2023-05-24T08:52:14;101749.31;;;14.24;93.28
16120;BME280;12670;53.502;10.252;2023-05-24T08:55:18;101749.31;;;14.46;93.65
16120;BME280;12670;53.502;10.252;2023-05-24T08:58:21;101741.56;;;14.39;95.25
16120;BME280;12670;53.502;10.252;2023-05-24T09:01:25;101756.41;;;14.47;94.45
16120;BME280;12670;53.502;10.252;2023-05-24T09:04:32;101754.72;;;14.44;91.88
16120;BME280;12670;53.502;10.252;2023-05-24T09:07:37;101764.44;;;14.25;91.78
16120;BME280;12670;53.502;10.252;2023-05-24T09:10:41;101767.28;;;14.20;91.90
16120;BME280;12670;53.502;10.252;2023-05-24T09:13:56;101764.97;;;14.33;92.25
16120;BME280;12670;53.502;10.252;2023-05-24T09:16:59;101764.59;;;14.42;95.38
16120;BME280;12670;53.502;10.252;2023-05-24T09:20:02;101759.44;;;14.59;91.54
16120;BME280;12670;53.502;10.252;2023-05-24T09:23:10;101777.22;;;14.60;90.79
16120;BME280;12670;53.502;10.252;2023-05-24T09:26:14;101775.16;;;14.45;92.49
16120;BME280;12670;53.502;10.252;2023-05-24T09:29:21;101781.88;;;14.55;92.06
16120;BME280;12670;53.502;10.252;2023-05-24T09:32:24;101771.63;;;14.66;92.34
16120;BME280;12670;53.502;10.252;2023-05-24T09:35:28;101779.69;;;14.43;91.12
16120;BME280;12670;53.502;10.252;2023-05-24T09:38:33;101771.50;;;14.48;91.58
16120;BME280;12670;53.502;10.252;2023-05-24T09:41:37;101784.81;;;14.49;93.61
16120;BME280;12670;53.502;10.252;2023-05-24T09:44:40;101781.69;;;14.60;92.52
16120;BME280;12670;53.502;10.252;2023-05-24T09:47:43;101791.88;;;14.72;92.64
16120;BME280;12670;53.502;10.252;2023-05-24T09:50:58;101777.16;;;14.82;94.00
16120;BME280;12670;53.502;10.252;2023-05-24T09:54:03;101787.94;;;15.01;92.67
16120;BME280;12670;53.502;10.252;2023-05-24T09:57:06;101792.28;;;15.04;92.88
16120;BME280;12670;53.502;10.252;2023-05-24T10:00:10;101786.19;;;15.20;92.06
16120;BME280;12670;53.502;10.252;2023-05-24T10:03:18;101792.03;;;15.29;90.44
16120;BME280;12670;53.502;10.252;2023-05-24T10:06:21;101790.00;;;15.15;88.51
16120;BME280;12670;53.502;10.252;2023-05-24T10:09:25;101785.31;;;15.20;90.83
16120;BME280;12670;53.502;10.252;2023-05-24T10:12:34;101790.91;;;15.34;90.10
16120;BME280;12670;53.502;10.252;2023-05-24T10:15:37;101789.47;;;15.46;86.84
16120;BME280;12670;53.502;10.252;2023-05-24T10:18:40;101795.25;;;15.76;86.99
16120;BME280;12670;53.502;10.252;2023-05-24T10:21:43;101796.06;;;15.78;85.20
16120;BME280;12670;53.502;10.252;2023-05-24T10:24:52;101801.25;;;15.62;86.14
16120;BME280;12670;53.502;10.252;2023-05-24T10:28:10;101803.84;;;15.64;86.10
16120;BME280;12670;53.502;10.252;2023-05-24T10:31:16;101807.66;;;15.79;83.89
16120;BME280;12670;53.502;10.252;2023-05-24T10:34:20;101800.84;;;15.71;82.70
16120;BME280;12670;53.502;10.252;2023-05-24T10:37:23;101802.16;;;15.61;82.96
16120;BME280;12670;53.502;10.252;2023-05-24T10:40:28;101805.25;;;15.52;85.12
16120;BME280;12670;53.502;10.252;2023-05-24T10:43:30;101806.25;;;15.31;85.16
16120;BME280;12670;53.502;10.252;2023-05-24T10:46:33;101811.31;;;15.37;83.47
16120;BME280;12670;53.502;10.252;2023-05-24T10:49:37;101803.97;;;15.42;85.44
16120;BME280;12670;53.502;10.252;2023-05-24T10:52:41;101805.25;;;15.52;85.97
16120;BME280;12670;53.502;10.252;2023-05-24T10:55:52;101806.78;;;15.78;85.28
16120;BME280;12670;53.502;10.252;2023-05-24T10:58:59;101801.03;;;16.05;83.77
16120;BME280;12670;53.502;10.252;2023-05-24T11:02:04;101814.34;;;16.61;84.04
16120;BME280;12670;53.502;10.252;2023-05-24T11:05:10;101798.78;;;16.87;79.53
16120;BME280;12670;53.502;10.252;2023-05-24T11:08:13;101802.09;;;17.26;77.65
16120;BME280;12670;53.502;10.252;2023-05-24T11:11:25;101801.81;;;17.48;75.20
16120;BME280;12670;53.502;10.252;2023-05-24T11:14:35;101805.38;;;17.65;73.14
16120;BME280;12670;53.502;10.252;2023-05-24T11:18:12;101793.94;;;17.28;75.98
16120;BME280;12670;53.502;10.252;2023-05-24T11:21:15;101792.06;;;17.63;77.08
16120;BME280;12670;53.502;10.252;2023-05-24T11:24:19;101793.22;;;17.75;73.34
16120;BME280;12670;53.502;10.252;2023-05-24T11:27:25;101793.72;;;17.66;73.51
16120;BME280;12670;53.502;10.252;2023-05-24T11:30:28;101793.34;;;17.56;73.04
16120;BME280;12670;53.502;10.252;2023-05-24T11:33:33;101791.94;;;17.49;75.93
16120;BME280;12670;53.502;10.252;2023-05-24T11:36:35;101799.94;;;17.33;74.61
16120;BME280;12670;53.502;10.252;2023-05-24T11:39:39;101795.00;;;17.08;74.67
16120;BME280;12670;53.502;10.252;2023-05-24T11:42:43;101800.28;;;17.27;76.21
16120;BME280;12670;53.502;10.252;2023-05-24T11:45:48;101796.88;;;17.23;74.79
16120;BME280;12670;53.502;10.252;2023-05-24T11:48:55;101795.75;;;16.58;74.98
16120;BME280;12670;53.502;10.252;2023-05-24T11:51:58;101787.19;;;17.03;77.63
16120;BME280;12670;53.502;10.252;2023-05-24T11:55:02;101802.94;;;17.27;75.47
16120;BME280;12670;53.502;10.252;2023-05-24T11:58:13;101806.72;;;17.23;73.89
16120;BME280;12670;53.502;10.252;2023-05-24T12:01:23;101804.94;;;17.06;74.70
16120;BME280;12670;53.502;10.252;2023-05-24T12:04:26;101817.41;;;17.07;75.08
16120;BME280;12670;53.502;10.252;2023-05-24T12:07:30;101811.41;;;17.19;76.01
16120;BME280;12670;53.502;10.252;2023-05-24T12:10:33;101812.56;;;17.31;75.70
16120;BME280;12670;53.502;10.252;2023-05-24T12:13:38;101809.81;;;17.15;75.90
16120;BME280;12670;53.502;10.252;2023-05-24T12:16:41;101812.38;;;17.01;75.99
16120;BME280;12670;53.502;10.252;2023-05-24T12:19:47;101815.19;;;16.98;72.83
16120;BME280;12670;53.502;10.252;2023-05-24T12:22:51;101823.88;;;17.03;69.32
16120;BME280;12670;53.502;10.252;2023-05-24T12:25:57;101825.91;;;17.15;72.98
16120;BME280;12670;53.502;10.252;2023-05-24T12:29:02;101825.59;;;17.21;71.63
16120;BME280;12670;53.502;10.252;2023-05-24T12:32:05;101831.28;;;16.81;72.99
16120;BME280;12670;53.502;10.252;2023-05-24T12:35:14;101834.75;;;17.00;73.66
16120;BME280;12670;53.502;10.252;2023-05-24T12:38:18;101825.13;;;17.30;72.58
16120;BME280;12670;53.502;10.252;2023-05-24T12:41:27;101831.91;;;17.38;72.62
16120;BME280;12670;53.502;10.252;2023-05-24T12:44:33;101832.53;;;17.43;71.34
16120;BME280;12670;53.502;10.252;2023-05-24T12:47:36;101828.22;;;17.73;71.19
16120;BME280;12670;53.502;10.252;2023-05-24T12:50:39;101833.09;;;17.82;69.46
16120;BME280;12670;53.502;10.252;2023-05-24T12:53:42;101839.34;;;17.66;69.10
16120;BME280;12670;53.502;10.252;2023-05-24T12:56:45;101832.50;;;17.60;69.99
16120;BME280;12670;53.502;10.252;2023-05-24T12:59:49;101835.59;;;17.68;73.45
16120;BME280;12670;53.502;10.252;2023-05-24T13:02:52;101833.19;;;17.46;72.19
16120;BME280;12670;53.502;10.252;2023-05-24T13:05:56;101831.50;;;17.28;70.87
16120;BME280;12670;53.502;10.252;2023-05-24T13:09:00;101834.91;;;17.31;72.16
16120;BME280;12670;53.502;10.252;2023-05-24T13:12:03;101833.94;;;17.32;72.23
16120;BME280;12670;53.502;10.252;2023-05-24T13:15:08;101827.53;;;17.35;74.01
16120;BME280;12670;53.502;10.252;2023-05-24T13:18:11;101824.81;;;17.37;74.62
16120;BME280;12670;53.502;10.252;2023-05-24T13:21:14;101831.72;;;17.23;72.23
16120;BME280;12670;53.502;10.252;2023-05-24T13:24:17;101819.50;;;17.18;70.45
16120;BME280;12670;53.502;10.252;2023-05-24T13:27:20;101827.22;;;17.41;72.65
16120;BME280;12670;53.502;10.252;2023-05-24T13:30:24;101828.13;;;17.57;72.67
16120;BME280;12670;53.502;10.252;2023-05-24T13:33:30;101831.13;;;18.02;71.61
16120;BME280;12670;53.502;10.252;2023-05-24T13:36:35;101833.00;;;18.00;68.91
16120;BME280;12670;53.502;10.252;2023-05-24T13:39:39;101830.53;;;18.13;70.38
16120;BME280;12670;53.502;10.252;2023-05-24T13:42:41;101827.91;;;17.95;66.30
16120;BME280;12670;53.502;10.252;2023-05-24T13:45:46;101826.59;;;17.87;69.13
16120;BME280;12670;53.502;10.252;2023-05-24T13:48:48;101826.44;;;17.90;70.51
16120;BME280;12670;53.502;10.252;2023-05-24T13:51:52;101824.25;;;17.63;69.86
16120;BME280;12670;53.502;10.252;2023-05-24T13:54:58;101826.16;;;17.61;71.73
16120;BME280;12670;53.502;10.252;2023-05-24T13:58:01;101816.06;;;17.66;73.29
16120;BME280;12670;53.502;10.252;2023-05-24T14:01:06;101816.06;;;17.66;73.28
16120;BME280;12670;53.502;10.252;2023-05-24T14:04:09;101808.34;;;17.60;69.86
16120;BME280;12670;53.502;10.252;2023-05-24T14:07:12;101815.94;;;18.32;74.93
16120;BME280;12670;53.502;10.252;2023-05-24T14:10:16;101815.75;;;18.83;68.44
16120;BME280;12670;53.502;10.252;2023-05-24T14:13:22;101807.38;;;19.32;69.10
16120;BME280;12670;53.502;10.252;2023-05-24T14:16:45;101814.41;;;19.49;65.14
16120;BME280;12670;53.502;10.252;2023-05-24T14:19:52;101822.84;;;19.28;64.24
16120;BME280;12670;53.502;10.252;2023-05-24T14:22:54;101822.22;;;19.09;65.10
16120;BME280;12670;53.502;10.252;2023-05-24T14:25:59;101830.63;;;19.18;65.26
16120;BME280;12670;53.502;10.252;2023-05-24T14:29:01;101829.75;;;19.18;63.88
16120;BME280;12670;53.502;10.252;2023-05-24T14:32:05;101835.47;;;19.42;65.78
16120;BME280;12670;53.502;10.252;2023-05-24T14:35:08;101828.84;;;19.03;65.33
16120;BME280;12670;53.502;10.252;2023-05-24T14:38:11;101829.03;;;19.00;65.96
16120;BME280;12670;53.502;10.252;2023-05-24T14:41:14;101831.81;;;18.99;64.12
16120;BME280;12670;53.502;10.252;2023-05-24T14:44:16;101833.56;;;19.00;64.21
16120;BME280;12670;53.502;10.252;2023-05-24T14:47:20;101831.13;;;18.95;63.06
16120;BME280;12670;53.502;10.252;2023-05-24T14:50:23;101838.56;;;18.60;62.41
16120;BME280;12670;53.502;10.252;2023-05-24T14:53:26;101835.94;;;18.58;61.98
16120;BME280;12670;53.502;10.252;2023-05-24T14:56:29;101847.13;;;18.51;60.98
16120;BME280;12670;53.502;10.252;2023-05-24T14:59:31;101841.25;;;18.60;63.63
16120;BME280;12670;53.502;10.252;2023-05-24T15:02:35;101846.41;;;18.63;64.93
16120;BME280;12670;53.502;10.252;2023-05-24T15:05:38;101844.44;;;18.67;62.04
16120;BME280;12670;53.502;10.252;2023-05-24T15:08:41;101839.53;;;18.59;62.79
16120;BME280;12670;53.502;10.252;2023-05-24T15:11:44;101841.53;;;18.71;64.66
16120;BME280;12670;53.502;10.252;2023-05-24T15:14:47;101845.22;;;18.69;63.39
16120;BME280;12670;53.502;10.252;2023-05-24T15:17:51;101837.94;;;18.39;63.82
16120;BME280;12670;53.502;10.252;2023-05-24T15:20:54;101844.19;;;18.39;62.51
16120;BME280;12670;53.502;10.252;2023-05-24T15:23:57;101832.16;;;18.15;65.61
16120;BME280;12670;53.502;10.252;2023-05-24T15:27:00;101836.41;;;18.03;70.52
16120;BME280;12670;53.502;10.252;2023-05-24T15:30:04;101832.22;;;17.98;73.81
16120;BME280;12670;53.502;10.252;2023-05-24T15:33:09;101832.41;;;18.10;74.28
16120;BME280;12670;53.502;10.252;2023-05-24T15:36:11;101826.88;;;18.29;72.88
16120;BME280;12670;53.502;10.252;2023-05-24T15:39:15;101823.59;;;18.24;68.06
16120;BME280;12670;53.502;10.252;2023-05-24T15:42:19;101830.50;;;18.28;66.74
16120;BME280;12670;53.502;10.252;2023-05-24T15:45:22;101830.09;;;18.36;71.04
16120;BME280;12670;53.502;10.252;2023-05-24T15:48:26;101829.13;;;18.21;74.86